Time;durP1;ratioP1;P1;durP2;ratioP2;P2;SDS_P1;SDS_P2;PMS_P1;PMS_P2;Temp;Humidity;BMP_temperature;BMP_pressure;BME280_temperature;BME280_humidity;BME280_pressure;Samples;Min_cycle;Max_cycle;Signal;HPM_P1;HPM_P2
2022/09/21 00:02:33;;;;;;;;;;;;;;;18.67;59.82;101703.45;2315325;76;51563;-76
2022/09/21 00:05:35;;;;;;;;;;;;;;;18.68;59.86;101711.02;2323509;75;50084;-76
2022/09/21 00:08:36;;;;;;;;;;;;;;;18.68;59.75;101704.33;2353506;75;50407;-76
2022/09/21 00:11:38;;;;;;;;;;;;;;;18.67;59.78;101706.64;2328464;75;50089;-76
2022/09/21 00:14:39;;;;;;;;;;;;;;;18.65;59.85;101714.00;2354235;75;50789;-76
2022/09/21 00:17:41;;;;;;;;;;;;;;;18.66;59.72;101715.70;2328568;75;51629;-76
2022/09/21 00:20:43;;;;;;;;;;;;;;;18.64;59.77;101714.50;2353686;75;50747;-76
2022/09/21 00:23:44;;;;;;;;;;;;;;;18.63;59.75;101716.02;2291169;75;51008;-76
2022/09/21 00:26:46;;;;;;;;;;;;;;;18.63;59.78;101718.70;2338833;75;51500;-76
2022/09/21 00:29:47;;;;;;;;;;;;;;;18.63;59.71;101717.36;2313987;76;50430;-76
2022/09/21 00:32:49;;;;;;;;;;;;;;;18.63;59.75;101718.70;2290222;76;49640;-76
2022/09/21 00:35:50;;;;;;;;;;;;;;;18.62;59.77;101715.66;2288788;76;50090;-76
2022/09/21 00:38:53;;;;;;;;;;;;;;;18.60;59.87;101719.85;2289872;76;50685;-76
2022/09/21 00:41:54;;;;;;;;;;;;;;;18.62;59.73;101717.00;2289696;76;49469;-76
2022/09/21 00:44:56;;;;;;;;;;;;;;;18.61;59.80;101716.67;2314785;76;50264;-76
2022/09/21 00:47:57;;;;;;;;;;;;;;;18.60;59.72;101717.17;2252877;76;51825;-76
2022/09/21 00:51:01;;;;;;;;;;;;;;;18.58;59.85;101717.82;2314657;76;51416;-76
2022/09/21 00:54:04;;;;;;;;;;;;;;;18.59;59.72;101724.02;2313279;76;51631;-76
2022/09/21 00:57:06;;;;;;;;;;;;;;;18.58;59.74;101725.86;2317398;75;54975;-76
2022/09/21 01:00:08;;;;;;;;;;;;;;;18.59;59.64;101724.02;2313097;76;49352;-76
2022/09/21 01:03:10;;;;;;;;;;;;;;;18.58;59.64;101726.37;2312743;76;50392;-75
2022/09/21 01:06:12;;;;;;;;;;;;;;;18.58;59.56;101718.33;2313660;76;50408;-76
2022/09/21 01:09:14;;;;;;;;;;;;;;;18.58;59.59;101721.01;2289121;76;50781;-75
2022/09/21 01:12:34;;;;;;;;;;;;;;;18.56;59.60;101729.19;2289199;76;50262;-75
2022/09/21 01:15:40;;;;;;;;;;;;;;;18.57;59.64;101731.37;2313488;76;50435;-75
2022/09/21 01:18:46;;;;;;;;;;;;;;;18.55;59.67;101728.86;2316476;76;51524;-75
2022/09/21 01:21:49;;;;;;;;;;;;;;;18.56;59.64;101735.89;2315107;76;49997;-75
2022/09/21 01:24:59;;;;;;;;;;;;;;;18.55;59.65;101732.02;2295562;75;51942;-75
2022/09/21 01:28:05;;;;;;;;;;;;;;;18.53;59.63;101733.53;2362542;74;51872;-75
2022/09/21 01:31:07;;;;;;;;;;;;;;;18.53;59.63;101738.06;2328266;75;51557;-75
2022/09/21 01:34:16;;;;;;;;;;;;;;;18.53;59.64;101745.59;2327997;75;50695;-75
2022/09/21 01:37:22;;;;;;;;;;;;;;;18.53;59.66;101746.09;2305969;76;49839;-76
2022/09/21 01:40:26;;;;;;;;;;;;;;;18.49;59.67;101737.00;2328573;76;51493;-76
2022/09/21 01:43:32;;;;;;;;;;;;;;;18.50;59.63;101737.36;2328362;75;51558;-76
2022/09/21 01:46:33;;;;;;;;;;;;;;;18.50;59.61;101741.38;2328416;75;50455;-76
2022/09/21 01:49:36;;;;;;;;;;;;;;;18.49;59.60;101739.69;2306823;76;49558;-76
2022/09/21 01:52:39;;;;;;;;;;;;;;;18.48;59.76;101740.70;2328538;75;50536;-76
2022/09/21 01:55:42;;;;;;;;;;;;;;;18.47;59.66;101749.74;2326958;75;50806;-76
2022/09/21 01:58:51;;;;;;;;;;;;;;;18.47;59.64;101743.05;2318343;75;51564;-76
2022/09/21 02:02:00;;;;;;;;;;;;;;;18.47;59.66;101745.72;2289081;76;51888;-76
2022/09/21 02:05:02;;;;;;;;;;;;;;;18.47;59.55;101743.52;2314785;75;50541;-76
2022/09/21 02:08:04;;;;;;;;;;;;;;;18.47;59.59;101744.38;2314919;76;50411;-76
2022/09/21 02:11:06;;;;;;;;;;;;;;;18.47;59.50;101744.38;2314430;75;51589;-76
2022/09/21 02:14:09;;;;;;;;;;;;;;;18.47;59.53;101748.87;2253440;76;50831;-76
2022/09/21 02:17:13;;;;;;;;;;;;;;;18.46;59.63;101745.36;2313454;76;51565;-76
2022/09/21 02:20:19;;;;;;;;;;;;;;;18.46;59.52;101744.02;2313445;75;50445;-76
2022/09/21 02:23:25;;;;;;;;;;;;;;;18.46;59.59;101747.20;2312961;76;51588;-76
2022/09/21 02:26:30;;;;;;;;;;;;;;;18.44;59.56;101741.98;2294916;75;49719;-76
2022/09/21 02:29:33;;;;;;;;;;;;;;;18.45;59.61;101741.01;2305526;75;22257;-76
2022/09/21 02:32:50;;;;;;;;;;;;;;;18.44;59.66;101734.45;2300179;76;51706;-76
2022/09/21 02:35:53;;;;;;;;;;;;;;;18.44;59.62;101730.44;2300716;77;50709;-76
2022/09/21 02:38:56;;;;;;;;;;;;;;;18.43;59.57;101731.44;2273198;77;51909;-76
2022/09/21 02:42:02;;;;;;;;;;;;;;;18.42;59.55;101734.63;2299612;76;50805;-76
2022/09/21 02:45:11;;;;;;;;;;;;;;;18.42;59.53;101737.31;2296682;77;50794;-75
2022/09/21 02:48:15;;;;;;;;;;;;;;;18.44;59.51;101743.83;2295760;77;50418;-78
2022/09/21 02:51:21;;;;;;;;;;;;;;;18.47;59.36;101745.72;2297696;75;50142;-77
2022/09/21 02:54:24;;;;;;;;;;;;;;;18.41;59.90;101746.33;2354554;75;50978;-77
2022/09/21 02:57:25;;;;;;;;;;;;;;;18.38;60.05;101747.98;2318041;75;50770;-77
2022/09/21 03:00:27;;;;;;;;;;;;;;;18.37;60.11;101750.80;2389093;74;50360;-76
2022/09/21 03:03:29;;;;;;;;;;;;;;;18.38;60.05;101754.68;2383573;74;51263;-76
2022/09/21 03:06:30;;;;;;;;;;;;;;;18.36;60.17;101759.34;2379193;74;50733;-78
2022/09/21 03:09:32;;;;;;;;;;;;;;;18.37;60.16;101770.42;2324315;75;51549;-77
2022/09/21 03:12:33;;;;;;;;;;;;;;;18.37;60.03;101773.11;2273168;77;50741;-77
2022/09/21 03:15:38;;;;;;;;;;;;;;;18.39;60.10;101776.95;2293303;75;52799;-78
2022/09/21 03:18:43;;;;;;;;;;;;;;;18.39;60.03;101769.75;2355155;75;50797;-77
2022/09/21 03:21:43;;;;;;;;;;;;;;;18.38;60.01;101777.45;2354523;75;22761;-77
2022/09/21 03:24:45;;;;;;;;;;;;;;;18.39;59.96;101773.77;2354860;75;50798;-77
2022/09/21 03:27:46;;;;;;;;;;;;;;;18.40;59.95;101774.64;2303062;75;49549;-78
2022/09/21 03:30:49;;;;;;;;;;;;;;;18.39;60.00;101775.61;2354167;75;50498;-78
2022/09/21 03:33:50;;;;;;;;;;;;;;;18.40;59.92;101775.47;2352890;75;51643;-78
2022/09/21 03:36:52;;;;;;;;;;;;;;;18.41;59.86;101777.14;2354439;75;50687;-77
2022/09/21 03:39:53;;;;;;;;;;;;;;;18.40;59.88;101776.81;2303014;75;52504;-77
2022/09/21 03:42:55;;;;;;;;;;;;;;;18.39;59.90;101778.30;2354041;75;51551;-80
2022/09/21 03:45:56;;;;;;;;;;;;;;;18.41;59.89;101777.14;2355192;75;50737;-78
2022/09/21 03:48:58;;;;;;;;;;;;;;;18.42;59.78;101780.19;2342309;75;50749;-76
2022/09/21 03:52:00;;;;;;;;;;;;;;;18.44;59.72;101777.33;2355436;75;50391;-78
2022/09/21 03:55:03;;;;;;;;;;;;;;;18.41;59.78;101771.78;2302597;75;51129;-78
2022/09/21 03:58:05;;;;;;;;;;;;;;;18.42;59.76;101778.84;2355515;75;22469;-78
2022/09/21 04:01:06;;;;;;;;;;;;;;;18.43;59.73;101779.17;2354415;75;50778;-77
2022/09/21 04:04:08;;;;;;;;;;;;;;;18.40;59.86;101777.31;2354130;75;50729;-77
2022/09/21 04:07:09;;;;;;;;;;;;;;;18.39;59.90;101781.81;2302328;75;52646;-77
2022/09/21 04:10:14;;;;;;;;;;;;;;;18.39;59.84;101781.81;2355824;75;51521;-78
2022/09/21 04:13:16;;;;;;;;;;;;;;;18.43;59.77;101791.74;2353845;75;51641;-77
2022/09/21 04:16:17;;;;;;;;;;;;;;;18.42;59.80;101785.55;2367923;74;52047;-78
2022/09/21 04:19:21;;;;;;;;;;;;;;;18.39;60.18;101788.51;2268408;76;51038;-76
2022/09/21 04:22:23;;;;;;;;;;;;;;;18.41;59.98;101796.41;2315338;76;22431;-77
2022/09/21 04:25:25;;;;;;;;;;;;;;;18.45;59.73;101789.25;2315647;76;51614;-77
2022/09/21 04:28:27;;;;;;;;;;;;;;;18.44;59.75;101784.87;2314791;76;51382;-78
2022/09/21 04:31:29;;;;;;;;;;;;;;;18.44;59.74;101791.56;2287669;76;50184;-77
2022/09/21 04:34:30;;;;;;;;;;;;;;;18.44;59.74;101788.05;2315268;76;50380;-79
2022/09/21 04:37:32;;;;;;;;;;;;;;;18.41;59.98;101783.84;2314653;76;50722;-78
2022/09/21 04:40:33;;;;;;;;;;;;;;;18.41;59.79;101781.16;2315582;76;50684;-78
2022/09/21 04:43:35;;;;;;;;;;;;;;;18.44;59.69;101782.19;2315258;76;52494;-81
2022/09/21 04:46:37;;;;;;;;;;;;;;;18.40;60.08;101778.66;2316004;76;51515;-78
2022/09/21 04:49:39;;;;;;;;;;;;;;;18.46;59.78;101786.90;2397837;74;50558;-79
2022/09/21 04:52:40;;;;;;;;;;;;;;;18.46;59.90;101790.09;2344138;74;51505;-79
2022/09/21 04:55:42;;;;;;;;;;;;;;;18.44;60.00;101782.19;2246959;76;50994;-79
2022/09/21 04:58:43;;;;;;;;;;;;;;;18.44;60.19;101792.91;2295726;77;50716;-79
2022/09/21 05:01:45;;;;;;;;;;;;;;;18.44;60.07;101792.91;2295592;76;51588;-79
2022/09/21 05:04:46;;;;;;;;;;;;;;;18.49;59.72;101797.81;2271806;77;50660;-79
2022/09/21 05:07:48;;;;;;;;;;;;;;;18.49;59.81;101797.30;2272132;77;50994;-78
2022/09/21 05:10:50;;;;;;;;;;;;;;;18.44;59.80;101801.45;2272472;77;50122;-78
2022/09/21 05:13:51;;;;;;;;;;;;;;;18.45;59.85;101803.16;2271595;77;50422;-78
2022/09/21 05:16:53;;;;;;;;;;;;;;;18.42;59.89;101804.78;2295109;77;50294;-78
2022/09/21 05:19:54;;;;;;;;;;;;;;;18.40;59.88;101812.16;2272257;77;50072;-77
2022/09/21 05:22:57;;;;;;;;;;;;;;;18.38;59.80;101822.17;2296768;76;53533;-79
2022/09/21 05:25:59;;;;;;;;;;;;;;;18.37;60.03;101821.81;2315328;76;51674;-78
2022/09/21 05:29:01;;;;;;;;;;;;;;;18.36;59.86;101824.99;2315838;76;51476;-79
2022/09/21 05:32:07;;;;;;;;;;;;;;;18.35;59.71;101826.50;2254080;76;53880;-80
2022/09/21 05:35:27;;;;;;;;;;;;;;;18.34;59.75;101834.18;2315867;76;50304;-80
2022/09/21 05:38:29;;;;;;;;;;;;;;;18.38;59.55;101840.43;2329397;75;51584;-78
2022/09/21 05:41:31;;;;;;;;;;;;;;;18.34;60.10;101840.41;2308517;76;51558;-77
2022/09/21 05:44:32;;;;;;;;;;;;;;;18.36;60.39;101833.03;2288861;76;50984;-78
2022/09/21 05:47:51;;;;;;;;;;;;;;;18.38;60.55;101837.75;2264026;76;51291;-78
2022/09/21 05:50:56;;;;;;;;;;;;;;;18.38;60.48;101836.91;2312978;76;50464;-78
2022/09/21 05:54:02;;;;;;;;;;;;;;;18.36;60.48;101842.41;2314470;76;50744;-79
2022/09/21 05:57:05;;;;;;;;;;;;;;;18.38;60.60;101843.11;2290873;76;51923;-80
2022/09/21 06:00:11;;;;;;;;;;;;;;;18.36;60.10;101844.26;2317359;75;50357;-79
2022/09/21 06:03:20;;;;;;;;;;;;;;;18.37;60.03;101836.08;2352111;74;50497;-77
2022/09/21 06:06:22;;;;;;;;;;;;;;;18.42;59.84;101840.95;2314960;76;51668;-78
2022/09/21 06:09:24;;;;;;;;;;;;;;;18.45;59.57;101844.19;2268622;76;50027;-79
2022/09/21 06:12:26;;;;;;;;;;;;;;;18.46;59.56;101839.16;2345277;75;50594;-78
2022/09/21 06:15:27;;;;;;;;;;;;;;;18.46;59.55;101848.55;2358051;75;51589;-79
2022/09/21 06:18:29;;;;;;;;;;;;;;;18.43;59.45;101835.45;2356377;75;51357;-78
2022/09/21 06:21:31;;;;;;;;;;;;;;;18.39;59.56;101842.10;2291623;75;52434;-79
2022/09/21 06:24:32;;;;;;;;;;;;;;;18.41;59.49;101846.81;2354752;75;51531;-78
2022/09/21 06:27:34;;;;;;;;;;;;;;;18.39;59.49;101852.82;2355052;75;52330;-78
2022/09/21 06:30:35;;;;;;;;;;;;;;;18.41;59.41;101845.98;2339967;75;50286;-79
2022/09/21 06:33:37;;;;;;;;;;;;;;;18.40;59.53;101853.69;2314524;76;51448;-78
2022/09/21 06:36:39;;;;;;;;;;;;;;;18.40;59.40;101851.84;2290126;76;51488;-78
2022/09/21 06:39:40;;;;;;;;;;;;;;;18.39;59.38;101859.52;2315991;76;50330;-78
2022/09/21 06:42:42;;;;;;;;;;;;;;;18.39;59.46;101863.54;2317270;75;50127;-79
2022/09/21 06:45:43;;;;;;;;;;;;;;;18.40;59.47;101867.92;2253418;76;49677;-78
2022/09/21 06:48:45;;;;;;;;;;;;;;;18.41;59.36;101870.09;2289560;76;50728;-78
2022/09/21 06:51:49;;;;;;;;;;;;;;;18.37;59.36;101866.89;2308562;75;51583;-79
2022/09/21 06:54:51;;;;;;;;;;;;;;;18.38;59.32;101866.39;2355145;75;50361;-78
2022/09/21 06:57:53;;;;;;;;;;;;;;;18.36;59.31;101867.87;2330180;75;50074;-79
2022/09/21 07:00:55;;;;;;;;;;;;;;;18.37;59.27;101880.30;2329666;75;50468;-78
2022/09/21 07:03:56;;;;;;;;;;;;;;;18.34;59.39;101869.02;2316368;76;50892;-79
2022/09/21 07:06:58;;;;;;;;;;;;;;;18.34;59.39;101879.27;2291202;75;50425;-78
2022/09/21 07:09:59;;;;;;;;;;;;;;;18.32;59.29;101880.41;2266556;75;50084;-78
2022/09/21 07:13:02;;;;;;;;;;;;;;;18.33;59.25;101876.22;2355106;75;50478;-79
2022/09/21 07:16:05;;;;;;;;;;;;;;;18.34;59.25;101885.09;2346582;74;51664;-78
2022/09/21 07:19:07;;;;;;;;;;;;;;;18.36;59.13;101883.95;2357047;75;51579;-79
2022/09/21 07:22:09;;;;;;;;;;;;;;;18.40;59.13;101890.70;2284029;76;52506;-79
2022/09/21 07:25:10;;;;;;;;;;;;;;;18.40;59.08;101893.88;2329572;75;51429;-79
2022/09/21 07:28:12;;;;;;;;;;;;;;;18.41;59.12;101892.88;2355637;75;50448;-79
2022/09/21 07:31:15;;;;;;;;;;;;;;;18.40;59.04;101884.00;2354613;75;50378;-79
2022/09/21 07:34:16;;;;;;;;;;;;;;;18.42;58.93;101893.21;2284590;75;52827;-79
2022/09/21 07:37:18;;;;;;;;;;;;;;;18.40;58.98;101893.38;2332513;76;51541;-78
2022/09/21 07:40:19;;;;;;;;;;;;;;;18.41;58.97;101888.86;2348863;75;50505;-78
2022/09/21 07:43:21;;;;;;;;;;;;;;;18.48;59.24;101885.42;2379207;74;50693;-79
2022/09/21 07:46:22;;;;;;;;;;;;;;;18.53;58.76;101884.97;2349815;73;49295;-79
2022/09/21 07:49:24;;;;;;;;;;;;;;;18.49;58.75;101889.77;2339092;75;50723;-78
2022/09/21 07:52:26;;;;;;;;;;;;;;;18.47;58.83;101893.59;2315497;76;50725;-79
2022/09/21 07:55:27;;;;;;;;;;;;;;;18.46;59.13;101884.72;2320499;76;51548;-79
2022/09/21 08:01:48;;;;;;;;;;;;;;;18.47;58.89;101889.11;2333866;76;22495;-79
2022/09/21 08:04:50;;;;;;;;;;;;;;;18.47;58.86;101896.28;2333141;76;51535;-79
2022/09/21 08:07:53;;;;;;;;;;;;;;;18.46;58.87;101896.78;2327094;75;50661;-78
2022/09/21 08:10:56;;;;;;;;;;;;;;;18.46;58.81;101899.47;2291175;76;50492;-79
2022/09/21 08:13:58;;;;;;;;;;;;;;;18.49;58.79;101901.83;2355311;74;50398;-77
2022/09/21 08:17:00;;;;;;;;;;;;;;;18.56;58.62;101899.91;2407154;74;51573;-79
2022/09/21 08:20:02;;;;;;;;;;;;;;;18.50;58.66;101900.86;2317477;75;52399;-79
2022/09/21 08:23:03;;;;;;;;;;;;;;;18.49;58.74;101903.17;2296345;75;51064;-79
2022/09/21 08:26:06;;;;;;;;;;;;;;;18.47;58.74;101902.51;2295138;77;50724;-79
2022/09/21 08:29:07;;;;;;;;;;;;;;;18.47;58.76;101905.19;2295608;77;51524;-79
2022/09/21 08:32:09;;;;;;;;;;;;;;;18.48;58.73;101906.86;2272753;77;51581;-78
2022/09/21 08:35:10;;;;;;;;;;;;;;;18.47;58.64;101905.19;2305048;75;51798;-79
2022/09/21 08:38:12;;;;;;;;;;;;;;;18.52;58.60;101903.88;2352068;74;50400;-79
2022/09/21 08:41:18;;;;;;;;;;;;;;;18.57;58.44;101903.75;2312837;75;50097;-78
2022/09/21 08:44:23;;;;;;;;;;;;;;;18.59;58.32;101909.81;2332582;76;51543;-79
2022/09/21 08:47:29;;;;;;;;;;;;;;;18.60;58.72;101910.65;2311971;75;49618;-78
2022/09/21 08:50:33;;;;;;;;;;;;;;;18.61;58.41;101915.03;2321299;75;51513;-78
2022/09/21 08:53:35;;;;;;;;;;;;;;;18.58;58.39;101910.82;2295245;77;52636;-78
2022/09/21 08:56:37;;;;;;;;;;;;;;;18.62;58.32;101912.69;2295236;77;50765;-79
2022/09/21 08:59:40;;;;;;;;;;;;;;;18.63;58.25;101914.39;2271821;77;50919;-78
2022/09/21 09:02:53;;;;;;;;;;;;;;;18.64;58.28;101916.06;2271831;77;49880;-79
2022/09/21 09:06:05;;;;;;;;;;;;;;;18.64;58.27;101911.54;2294765;76;50421;-78
2022/09/21 09:09:11;;;;;;;;;;;;;;;18.65;58.26;101917.73;2295593;77;50502;-78
2022/09/21 09:12:20;;;;;;;;;;;;;;;18.65;58.35;101913.72;2271319;77;49704;-78
2022/09/21 09:15:26;;;;;;;;;;;;;;;18.67;58.25;101913.08;2294729;75;52330;-78
2022/09/21 09:18:45;;;;;;;;;;;;;;;18.62;58.33;101919.39;2315451;75;50414;-78
2022/09/21 09:21:46;;;;;;;;;;;;;;;18.59;58.33;101918.36;2312276;76;50847;-78
2022/09/21 09:24:52;;;;;;;;;;;;;;;18.58;58.42;101920.70;2289283;76;52601;-78
2022/09/21 09:27:53;;;;;;;;;;;;;;;18.56;58.43;101914.64;2289652;76;51536;-78
2022/09/21 09:30:57;;;;;;;;;;;;;;;18.55;58.42;101920.52;2314330;76;51619;-78
2022/09/21 09:34:00;;;;;;;;;;;;;;;18.58;58.38;101918.02;2304175;75;51492;-78
2022/09/21 09:37:03;;;;;;;;;;;;;;;18.55;58.44;101917.83;2289593;76;51420;-78
2022/09/21 09:40:06;;;;;;;;;;;;;;;18.55;58.41;101918.30;2313696;76;50425;-77
2022/09/21 09:43:09;;;;;;;;;;;;;;;18.53;58.37;101919.81;2315476;76;50266;-78
2022/09/21 09:46:12;;;;;;;;;;;;;;;18.52;58.43;101914.09;2312352;76;50410;-78
2022/09/21 09:49:28;;;;;;;;;;;;;;;18.52;58.37;101921.30;2306556;75;50887;-77
2022/09/21 09:52:30;;;;;;;;;;;;;;;18.52;58.36;101923.97;2334061;75;50662;-78
2022/09/21 09:55:36;;;;;;;;;;;;;;;18.51;58.42;101924.48;2354358;75;51540;-78
2022/09/21 09:58:43;;;;;;;;;;;;;;;18.50;58.41;101926.83;2353904;75;51561;-78
2022/09/21 10:01:45;;;;;;;;;;;;;;;18.49;58.43;101927.80;2329292;75;51035;-78
2022/09/21 10:05:00;;;;;;;;;;;;;;;18.48;58.44;101926.96;2354087;75;50315;-77
2022/09/21 10:08:00;;;;;;;;;;;;;;;18.49;58.31;101923.78;2355930;75;22279;-78
2022/09/21 10:11:02;;;;;;;;;;;;;;;18.48;58.31;101924.28;2355583;75;51530;-78
2022/09/21 10:14:07;;;;;;;;;;;;;;;18.49;58.31;101924.62;2304019;75;52509;-78
2022/09/21 10:17:10;;;;;;;;;;;;;;;18.49;58.29;101928.64;2355342;75;51567;-79
2022/09/21 10:20:16;;;;;;;;;;;;;;;18.48;58.30;101918.92;2335737;75;51439;-78
2022/09/21 10:23:17;;;;;;;;;;;;;;;18.48;58.32;101917.58;2355131;75;52351;-79
2022/09/21 10:26:19;;;;;;;;;;;;;;;18.47;58.30;101906.53;2329201;75;51002;-77
2022/09/21 10:29:25;;;;;;;;;;;;;;;18.50;58.28;101918.78;2353688;75;51622;-77
2022/09/21 10:32:28;;;;;;;;;;;;;;;18.48;58.27;101910.88;2356147;75;51605;-77
2022/09/21 10:35:29;;;;;;;;;;;;;;;18.48;58.21;101912.22;2356914;75;52325;-77
2022/09/21 10:38:31;;;;;;;;;;;;;;;18.48;58.26;101905.52;2305618;75;51793;-77
2022/09/21 10:41:32;;;;;;;;;;;;;;;18.47;58.26;101907.00;2301665;75;49707;-78
2022/09/21 10:44:36;;;;;;;;;;;;;;;18.47;58.27;101910.55;2351456;75;50742;-78
2022/09/21 10:47:42;;;;;;;;;;;;;;;18.50;58.10;101908.90;2315648;75;50343;-77
2022/09/21 10:50:44;;;;;;;;;;;;;;;18.51;58.06;101903.03;2290467;76;51071;-79
2022/09/21 10:53:47;;;;;;;;;;;;;;;18.50;58.09;101899.52;2314579;76;50851;-77
2022/09/21 10:56:49;;;;;;;;;;;;;;;18.49;58.14;101894.30;2313779;76;51499;-77
2022/09/21 10:59:51;;;;;;;;;;;;;;;18.48;58.16;101892.13;2311784;76;50261;-78
2022/09/21 11:02:54;;;;;;;;;;;;;;;18.49;58.19;101896.98;2289907;76;51802;-78
2022/09/21 11:06:13;;;;;;;;;;;;;;;18.50;58.14;101890.14;2319534;75;51741;-78
2022/09/21 11:09:20;;;;;;;;;;;;;;;18.52;57.97;101879.25;2315735;76;50418;-80
2022/09/21 11:12:29;;;;;;;;;;;;;;;18.61;57.75;101878.84;2316216;76;50428;-79
2022/09/21 11:15:49;;;;;;;;;;;;;;;18.67;57.63;101884.92;2310745;75;49670;-79
2022/09/21 11:18:55;;;;;;;;;;;;;;;18.65;57.65;101880.20;2329036;75;51519;-79
2022/09/21 11:22:01;;;;;;;;;;;;;;;18.63;57.65;101882.22;2315908;76;51493;-79
2022/09/21 11:25:08;;;;;;;;;;;;;;;18.59;57.72;101874.13;2317303;76;51583;-79
2022/09/21 11:28:21;;;;;;;;;;;;;;;18.56;57.85;101875.28;2316368;76;51523;-80
2022/09/21 11:31:24;;;;;;;;;;;;;;;18.55;57.90;101868.72;2315169;76;50758;-80
2022/09/21 11:34:28;;;;;;;;;;;;;;;18.53;57.97;101876.92;2316864;76;50666;-80
2022/09/21 11:37:31;;;;;;;;;;;;;;;18.50;58.03;101864.67;2313759;75;50946;-80
2022/09/21 11:40:35;;;;;;;;;;;;;;;18.53;57.99;101869.39;2306064;75;50104;-80
2022/09/21 11:43:41;;;;;;;;;;;;;;;18.52;58.17;101871.70;2331470;76;51433;-78
2022/09/21 11:46:57;;;;;;;;;;;;;;;18.52;58.05;101879.75;2332413;75;50868;-79
2022/09/21 11:50:14;;;;;;;;;;;;;;;18.48;58.15;101879.22;2332195;76;51493;-78
2022/09/21 11:53:17;;;;;;;;;;;;;;;18.47;58.22;101874.37;2309627;76;49644;-79
2022/09/21 11:56:30;;;;;;;;;;;;;;;18.47;58.23;101871.69;2331985;76;50780;-78
2022/09/21 11:59:50;;;;;;;;;;;;;;;18.46;58.24;101873.16;2332922;76;51591;-78
2022/09/21 12:02:57;;;;;;;;;;;;;;;18.47;58.26;101864.98;2332042;76;50369;-78
2022/09/21 12:06:06;;;;;;;;;;;;;;;18.49;58.18;101859.45;2299801;76;50995;-80
2022/09/21 12:09:26;;;;;;;;;;;;;;;18.49;58.35;101859.45;2346590;74;51461;-79
2022/09/21 12:12:29;;;;;;;;;;;;;;;18.49;58.22;101854.93;2318175;76;51496;-79
2022/09/21 12:15:42;;;;;;;;;;;;;;;18.48;58.19;101863.98;2314700;76;50694;-79
2022/09/21 12:18:54;;;;;;;;;;;;;;;18.46;58.26;101861.11;2290104;76;51321;-80
2022/09/21 12:21:57;;;;;;;;;;;;;;;18.49;58.17;101865.66;2314454;76;51515;-79
2022/09/21 12:25:01;;;;;;;;;;;;;;;18.52;58.09;101856.47;2305976;76;50609;-79
2022/09/21 12:28:19;;;;;;;;;;;;;;;18.48;58.16;101857.78;2305394;75;50802;-79
2022/09/21 12:31:25;;;;;;;;;;;;;;;18.46;58.23;101859.27;2289906;76;51781;-79
2022/09/21 12:34:29;;;;;;;;;;;;;;;18.44;58.34;101859.91;2313196;76;51485;-80
2022/09/21 12:37:35;;;;;;;;;;;;;;;18.46;58.22;101857.92;2316413;75;51589;-79
2022/09/21 12:40:38;;;;;;;;;;;;;;;18.48;58.16;101847.06;2321468;75;50451;-79
2022/09/21 12:43:44;;;;;;;;;;;;;;;18.46;58.22;101849.88;2310665;75;51382;-80
2022/09/21 12:46:50;;;;;;;;;;;;;;;18.53;58.07;101851.47;2355437;75;50799;-80
2022/09/21 12:49:54;;;;;;;;;;;;;;;18.50;58.10;101849.94;2355486;75;52069;-80
2022/09/21 12:52:56;;;;;;;;;;;;;;;18.56;58.03;101840.43;2355071;75;50099;-80
2022/09/21 12:56:02;;;;;;;;;;;;;;;18.52;58.11;101846.24;2341142;74;49617;-81
2022/09/21 12:59:14;;;;;;;;;;;;;;;18.55;58.08;101842.78;2318373;76;50674;-81
2022/09/21 13:02:18;;;;;;;;;;;;;;;18.48;58.25;101834.50;2315719;75;51511;-81
2022/09/21 13:05:24;;;;;;;;;;;;;;;18.48;58.25;101835.00;2314808;76;51613;-81
2022/09/21 13:08:28;;;;;;;;;;;;;;;18.46;58.25;101843.19;2289547;76;49696;-81
2022/09/21 13:11:30;;;;;;;;;;;;;;;18.49;58.15;101832.15;2315000;76;51492;-80
2022/09/21 13:14:35;;;;;;;;;;;;;;;18.49;58.15;101840.19;2314744;76;50694;-81
2022/09/21 13:17:36;;;;;;;;;;;;;;;18.47;58.22;101840.00;2314660;76;22361;-81
2022/09/21 13:20:38;;;;;;;;;;;;;;;18.50;58.28;101831.67;2314447;76;50121;-82
2022/09/21 13:23:40;;;;;;;;;;;;;;;18.56;58.13;101834.23;2315331;76;51491;-82
2022/09/21 13:26:43;;;;;;;;;;;;;;;18.60;58.03;101832.91;2340080;74;50312;-81
2022/09/21 13:29:45;;;;;;;;;;;;;;;18.61;57.98;101833.27;2334411;74;51553;-81
2022/09/21 13:32:50;;;;;;;;;;;;;;;18.62;57.85;101827.73;2306760;75;50977;-81
2022/09/21 13:35:53;;;;;;;;;;;;;;;18.62;57.86;101829.08;2329194;76;51719;-80
2022/09/21 13:39:13;;;;;;;;;;;;;;;18.65;57.84;101830.61;2307511;76;51555;-81
2022/09/21 13:42:32;;;;;;;;;;;;;;;18.66;57.85;101829.13;2329504;76;51671;-81
2022/09/21 13:45:35;;;;;;;;;;;;;;;18.65;57.80;101828.80;2306991;76;51491;-81
2022/09/21 13:48:37;;;;;;;;;;;;;;;18.66;57.83;101821.59;2329093;76;50443;-82
2022/09/21 13:52:02;;;;;;;;;;;;;;;18.66;57.93;101825.11;2328549;76;50701;-80
2022/09/21 13:55:04;;;;;;;;;;;;;;;18.64;57.99;101819.55;2335419;75;51451;-80
2022/09/21 13:58:07;;;;;;;;;;;;;;;18.62;58.04;101822.38;2329584;75;50195;-82
2022/09/21 14:01:15;;;;;;;;;;;;;;;18.61;58.09;101818.53;2354432;75;51654;-80
2022/09/21 14:04:21;;;;;;;;;;;;;;;18.66;58.02;101826.45;2354372;75;50491;-81
2022/09/21 14:07:23;;;;;;;;;;;;;;;18.67;57.92;101820.08;2352871;75;51604;-81
2022/09/21 14:10:24;;;;;;;;;;;;;;;18.66;57.94;101821.59;2302959;75;51059;-78
2022/09/21 14:13:31;;;;;;;;;;;;;;;18.66;57.97;101821.08;2353680;75;51577;-80
2022/09/21 14:16:35;;;;;;;;;;;;;;;18.67;57.98;101821.92;2355692;75;51609;-80
2022/09/21 14:19:44;;;;;;;;;;;;;;;18.67;57.95;101820.08;2353833;75;51575;-80
2022/09/21 14:22:46;;;;;;;;;;;;;;;18.67;58.01;101813.37;2329652;75;50157;-81
2022/09/21 14:25:52;;;;;;;;;;;;;;;18.67;58.08;101808.52;2338874;75;51482;-81
2022/09/21 14:28:53;;;;;;;;;;;;;;;18.68;58.08;101802.17;2375185;74;51554;-81
2022/09/21 14:31:56;;;;;;;;;;;;;;;18.68;58.03;101806.20;2407680;74;51588;-80
2022/09/21 14:35:00;;;;;;;;;;;;;;;18.69;57.98;101799.32;2382939;74;51363;-80
2022/09/21 14:38:03;;;;;;;;;;;;;;;18.70;58.02;101795.66;2391069;74;50515;-81
2022/09/21 14:41:06;;;;;;;;;;;;;;;18.71;58.04;101796.50;2334727;75;50762;-80
2022/09/21 14:44:09;;;;;;;;;;;;;;;18.72;58.03;101787.45;2295795;77;51568;-81
2022/09/21 14:47:27;;;;;;;;;;;;;;;18.74;58.01;101794.00;2272555;77;50113;-80
2022/09/21 14:50:30;;;;;;;;;;;;;;;18.75;58.00;101783.13;2296291;77;23160;-81
2022/09/21 14:53:42;;;;;;;;;;;;;;;18.74;58.06;101781.44;2295571;77;50952;-80
2022/09/21 14:56:50;;;;;;;;;;;;;;;18.76;58.05;101784.84;2267191;77;51450;-81
2022/09/21 14:59:53;;;;;;;;;;;;;;;18.76;58.10;101784.84;2296262;77;23039;-81
2022/09/21 15:03:17;;;;;;;;;;;;;;;18.77;58.16;101782.48;2286773;77;51486;-80
2022/09/21 15:13:35;;;;;;;;;;;;;;;18.78;58.23;101786.00;2314257;76;24444;-81
2022/09/21 15:16:39;;;;;;;;;;;;;;;18.79;58.28;101783.18;2315760;76;50638;-81
2022/09/21 15:19:42;;;;;;;;;;;;;;;18.79;58.23;101781.00;2315577;76;50415;-80
2022/09/21 15:22:43;;;;;;;;;;;;;;;18.78;58.24;101781.50;2291503;76;51539;-81
2022/09/21 15:25:46;;;;;;;;;;;;;;;18.78;58.26;101775.28;2302114;76;49912;-81
2022/09/21 15:28:50;;;;;;;;;;;;;;;18.78;58.23;101773.46;2313773;75;52272;-81
2022/09/21 15:31:51;;;;;;;;;;;;;;;18.79;58.26;101772.45;2317003;76;51455;-81
2022/09/21 15:35:04;;;;;;;;;;;;;;;18.79;58.28;101776.47;2315325;76;51485;-82
2022/09/21 15:38:08;;;;;;;;;;;;;;;18.78;58.26;101766.76;2295799;75;49638;-80
2022/09/21 15:41:10;;;;;;;;;;;;;;;18.77;58.27;101770.42;2327712;75;50702;-82
2022/09/21 15:44:17;;;;;;;;;;;;;;;18.77;58.27;101766.40;2275052;76;50522;-79
2022/09/21 15:47:18;;;;;;;;;;;;;;;18.75;58.26;101773.75;2314688;76;23032;-80
2022/09/21 15:50:20;;;;;;;;;;;;;;;18.77;58.30;101774.44;2290241;75;51058;-79
2022/09/21 15:53:22;;;;;;;;;;;;;;;18.78;58.46;101776.14;2318754;75;51089;-81
2022/09/21 15:56:25;;;;;;;;;;;;;;;18.88;58.42;101774.67;2339293;74;50340;-81